createdAt,value
2018-08-18T00:02:21.021Z,100933.79
2018-08-18T00:04:48.801Z,100937.00
2018-08-18T00:07:16.540Z,100932.25
2018-08-18T00:09:44.264Z,100924.74
2018-08-18T00:12:16.426Z,100925.22
2018-08-18T00:14:44.097Z,100933.97
2018-08-18T00:17:11.808Z,100944.71
2018-08-18T00:19:39.499Z,100939.86
2018-08-18T00:22:07.171Z,100939.06
2018-08-18T00:24:37.454Z,100952.63
2018-08-18T00:27:05.147Z,100947.53
2018-08-18T00:29:32.824Z,100945.36
2018-08-18T00:32:00.521Z,100948.34
2018-08-18T00:34:28.191Z,100954.79
2018-08-18T00:36:55.959Z,100956.22
2018-08-18T00:39:23.884Z,100950.07
2018-08-18T00:41:51.670Z,100951.31
2018-08-18T00:44:19.337Z,100949.89
2018-08-18T00:46:46.995Z,100949.56
2018-08-18T00:49:14.670Z,100954.84
2018-08-18T00:51:42.349Z,100951.63
2018-08-18T00:54:10.052Z,100957.06
2018-08-18T00:56:39.901Z,100948.59
2018-08-18T00:59:07.653Z,100954.56
2018-08-18T01:01:35.357Z,100953.95
2018-08-18T01:04:07.713Z,100958.73
2018-08-18T01:06:37.216Z,100958.79
2018-08-18T01:09:08.393Z,100959.16
2018-08-18T01:11:36.211Z,100954.73
2018-08-18T01:14:12.907Z,100953.64
2018-08-18T01:16:46.019Z,100952.09
2018-08-18T01:19:13.675Z,100955.13
2018-08-18T01:21:45.865Z,100950.09
2018-08-18T01:24:13.575Z,100953.03
2018-08-18T01:26:41.283Z,100953.88
2018-08-18T01:29:15.134Z,100955.28
2018-08-18T01:31:42.812Z,100959.03
2018-08-18T01:34:10.562Z,100959.37
2018-08-18T01:36:38.226Z,100955.26
2018-08-18T01:39:08.721Z,100958.15
2018-08-18T01:41:36.665Z,100959.53
2018-08-18T01:44:24.481Z,100958.51
2018-08-18T01:46:53.149Z,100954.14
2018-08-18T01:49:38.310Z,100960.59
2018-08-18T01:52:13.295Z,100959.73
2018-08-18T01:54:41.307Z,100960.55
2018-08-18T01:57:09.696Z,100973.72
2018-08-18T01:59:41.589Z,100967.84
2018-08-18T02:02:11.351Z,100968.41
2018-08-18T02:04:39.052Z,100967.56
2018-08-18T02:07:15.077Z,100965.46
2018-08-18T02:09:42.743Z,100968.87
2018-08-18T02:12:10.406Z,100964.64
2018-08-18T02:14:38.110Z,100969.49
2018-08-18T02:17:15.601Z,100966.48
2018-08-18T02:19:43.285Z,100968.52
2018-08-18T02:22:10.968Z,100971.66
2018-08-18T02:24:38.621Z,100974.92
2018-08-18T02:27:06.301Z,100968.64
2018-08-18T02:29:33.957Z,100966.09
2018-08-18T02:32:01.626Z,100962.59
2018-08-18T02:34:29.297Z,100957.52
2018-08-18T02:36:57.017Z,100959.92
2018-08-18T02:39:24.693Z,100957.75
2018-08-18T02:41:59.185Z,100957.50
2018-08-18T02:44:26.846Z,100958.11
2018-08-18T02:46:54.664Z,100955.94
2018-08-18T02:49:22.408Z,100963.66
2018-08-18T02:51:50.069Z,100963.32
2018-08-18T02:54:17.851Z,100963.67
2018-08-18T02:56:45.501Z,100965.73
2018-08-18T02:59:13.156Z,100933.06
2018-08-18T03:01:42.203Z,100954.30
2018-08-18T03:04:11.610Z,100959.46
2018-08-18T03:06:39.686Z,100952.19
2018-08-18T03:09:08.810Z,100949.03
2018-08-18T03:11:38.832Z,100954.63
2018-08-18T03:14:06.546Z,100949.17
2018-08-18T03:16:35.394Z,100950.38
2018-08-18T03:19:03.118Z,100944.91
2018-08-18T03:21:36.305Z,100944.21
2018-08-18T03:24:14.200Z,100947.59
2018-08-18T03:26:47.319Z,100957.16
2018-08-18T03:29:15.600Z,100957.50
2018-08-18T03:31:43.682Z,100958.13
2018-08-18T03:34:11.859Z,100959.06
2018-08-18T03:36:42.293Z,100962.81
2018-08-18T03:39:16.344Z,100974.91
2018-08-18T03:41:44.283Z,100968.39
2018-08-18T03:44:11.935Z,100969.39
2018-08-18T03:46:39.630Z,100975.66
2018-08-18T03:49:07.457Z,100984.13
2018-08-18T03:51:40.654Z,100983.61
2018-08-18T03:54:08.352Z,100986.07
2018-08-18T03:56:36.016Z,100984.97
2018-08-18T03:59:03.802Z,100987.00
2018-08-18T04:01:40.321Z,100984.10
2018-08-18T04:04:09.250Z,100980.73
2018-08-18T04:06:38.233Z,100985.92
2018-08-18T04:09:17.446Z,100985.33
2018-08-18T04:11:45.104Z,100996.47
2018-08-18T04:14:12.933Z,100991.75
2018-08-18T04:16:45.667Z,100997.20
2018-08-18T04:19:15.128Z,100988.50
2018-08-18T04:21:42.821Z,100990.63
2018-08-18T04:24:10.694Z,100984.44
2018-08-18T04:26:38.341Z,100981.97
2018-08-18T04:29:06.106Z,100987.41
2018-08-18T04:31:34.745Z,100978.83
2018-08-18T04:34:03.391Z,100970.56
2018-08-18T04:36:31.523Z,100971.83
2018-08-18T04:38:59.286Z,100926.13
2018-08-18T04:41:27.031Z,100970.34
2018-08-18T04:43:54.907Z,100975.16
2018-08-18T04:46:22.594Z,100973.09
2018-08-18T04:48:50.266Z,100965.20
2018-08-18T04:51:17.938Z,100964.39
2018-08-18T04:53:45.631Z,100956.56
2018-08-18T04:56:13.339Z,100956.81
2018-08-18T04:58:41.158Z,100948.84
2018-08-18T05:01:08.850Z,100946.77
2018-08-18T05:03:51.094Z,100944.03
2018-08-18T05:06:23.390Z,100947.11
2018-08-18T05:08:51.163Z,100940.73
2018-08-18T05:11:18.773Z,100934.86
2018-08-18T05:13:46.413Z,100939.84
2018-08-18T05:16:14.078Z,100931.45
2018-08-18T05:18:41.735Z,100937.64
2018-08-18T05:21:09.453Z,100924.38
2018-08-18T05:23:37.160Z,100927.80
2018-08-18T05:26:04.824Z,100925.31
2018-08-18T05:28:32.479Z,100917.20
2018-08-18T05:31:00.158Z,100924.92
2018-08-18T05:33:27.812Z,100925.28
2018-08-18T05:35:55.497Z,100930.70
2018-08-18T05:38:23.179Z,100921.20
2018-08-18T05:40:50.846Z,100926.97
2018-08-18T05:43:18.526Z,100923.05
2018-08-18T05:45:46.191Z,100921.80
2018-08-18T05:48:13.867Z,100924.13
2018-08-18T05:50:41.556Z,100921.33
2018-08-18T05:53:18.241Z,100915.87
2018-08-18T05:55:46.621Z,100922.20
2018-08-18T05:58:14.387Z,100922.43
2018-08-18T06:00:42.125Z,100926.83
2018-08-18T06:03:10.102Z,100928.09
2018-08-18T06:05:37.848Z,100924.52
2018-08-18T06:08:06.084Z,100922.43
2018-08-18T06:10:33.741Z,100910.30
2018-08-18T06:13:06.940Z,100916.58
2018-08-18T06:15:34.656Z,100913.12
2018-08-18T06:18:02.363Z,100914.97
2018-08-18T06:20:30.025Z,100901.06
2018-08-18T06:22:57.672Z,100891.56
2018-08-18T06:25:25.338Z,100895.64
2018-08-18T06:27:53.012Z,100889.80
2018-08-18T06:30:20.753Z,100886.57
2018-08-18T06:32:48.441Z,100887.58
2018-08-18T06:35:16.109Z,100885.66
2018-08-18T06:37:48.259Z,100887.28
2018-08-18T06:40:15.944Z,100890.03
2018-08-18T06:42:44.782Z,100884.52
2018-08-18T06:45:14.628Z,100889.62
2018-08-18T06:47:43.046Z,100889.30
2018-08-18T06:50:12.698Z,100883.45
2018-08-18T06:52:40.905Z,100877.55
2018-08-18T06:55:13.537Z,100879.66
2018-08-18T06:57:45.245Z,100878.63
2018-08-18T07:00:14.673Z,100877.14
2018-08-18T07:02:42.390Z,100881.50
2018-08-18T07:05:12.365Z,100880.69
2018-08-18T07:07:40.636Z,100875.73
2018-08-18T07:10:36.196Z,100874.98
2018-08-18T07:13:06.219Z,100875.69
2018-08-18T07:15:35.226Z,100879.58
2018-08-18T07:18:03.095Z,100875.57
2018-08-18T07:20:30.854Z,100871.27
2018-08-18T07:22:58.649Z,100865.71
2018-08-18T07:25:26.319Z,100870.77
2018-08-18T07:27:59.793Z,100865.02
2018-08-18T07:30:28.533Z,100858.81
2018-08-18T07:32:56.377Z,100859.80
2018-08-18T07:35:24.093Z,100851.83
2018-08-18T07:37:51.917Z,100851.83
2018-08-18T07:40:30.144Z,100861.23
2018-08-18T07:43:05.163Z,100864.09
2018-08-18T07:45:33.498Z,100864.64
2018-08-18T07:48:01.429Z,100868.36
2018-08-18T07:50:29.050Z,100861.19
2018-08-18T07:52:57.119Z,100858.36
2018-08-18T07:55:24.799Z,100856.20
2018-08-18T07:57:57.068Z,100854.47
2018-08-18T08:00:33.529Z,100860.26
2018-08-18T08:03:01.560Z,100855.91
2018-08-18T08:05:29.685Z,100852.59
2018-08-18T08:07:57.461Z,100847.52
2018-08-18T08:10:25.274Z,100840.53
2018-08-18T08:12:52.924Z,100838.84
2018-08-18T08:15:20.610Z,100839.19
2018-08-18T08:17:48.311Z,100838.42
2018-08-18T08:20:16.807Z,100836.52
2018-08-18T08:22:45.280Z,100828.44
2018-08-18T08:25:12.992Z,100825.81
2018-08-18T08:27:40.883Z,100811.79
2018-08-18T08:30:10.447Z,100810.67
2018-08-18T08:32:38.306Z,100810.29
2018-08-18T08:35:06.613Z,100804.95
2018-08-18T08:37:34.278Z,100793.94
2018-08-18T08:40:01.961Z,100795.40
2018-08-18T08:42:29.657Z,100790.27
2018-08-18T08:44:57.454Z,100783.53
2018-08-18T08:47:25.387Z,100784.52
2018-08-18T08:49:53.092Z,100781.06
2018-08-18T08:52:20.864Z,100773.03
2018-08-18T08:54:48.609Z,100763.91
2018-08-18T08:57:16.342Z,100764.22
2018-08-18T08:59:44.018Z,100768.23
2018-08-18T09:02:13.171Z,100770.91
2018-08-18T09:04:40.969Z,100766.25
2018-08-18T09:07:10.128Z,100763.95
2018-08-18T09:09:37.864Z,100762.08
2018-08-18T09:12:05.844Z,100761.34
2018-08-18T09:14:33.662Z,100752.84
2018-08-18T09:17:01.484Z,100767.27
2018-08-18T09:19:29.212Z,100758.09
2018-08-18T09:22:00.080Z,100757.71
2018-08-18T09:24:29.872Z,100756.72
2018-08-18T09:26:58.938Z,100756.58
2018-08-18T09:29:27.781Z,100746.04
2018-08-18T09:31:57.340Z,100740.16
2018-08-18T09:34:25.073Z,100739.27
2018-08-18T09:36:52.794Z,100732.41
2018-08-18T09:39:36.948Z,100733.44
2018-08-18T09:42:08.065Z,100729.58
2018-08-18T09:44:41.826Z,100726.70
2018-08-18T09:47:09.556Z,100729.89
2018-08-18T09:49:37.233Z,100721.75
2018-08-18T09:52:06.132Z,100721.44
2018-08-18T09:54:33.833Z,100727.14
2018-08-18T09:57:01.603Z,100720.81
2018-08-18T09:59:29.679Z,100717.65
2018-08-18T10:01:57.425Z,100714.72
2018-08-18T10:04:25.185Z,100725.09
2018-08-18T10:06:53.706Z,100725.44
2018-08-18T10:09:21.521Z,100714.23
2018-08-18T10:11:49.194Z,100713.69
2018-08-18T10:14:17.062Z,100712.86
2018-08-18T10:16:44.777Z,100702.00
2018-08-18T10:19:12.472Z,100698.91
2018-08-18T10:21:40.145Z,100702.01
2018-08-18T10:24:08.494Z,100693.16
2018-08-18T10:26:36.151Z,100691.86
2018-08-18T10:29:16.379Z,100704.73
2018-08-18T10:31:48.765Z,100686.95
2018-08-18T10:34:18.742Z,100699.77
2018-08-18T10:36:49.769Z,100680.70
2018-08-18T10:39:17.521Z,100681.41
2018-08-18T10:41:56.585Z,100680.25
2018-08-18T10:44:24.978Z,100680.43
2018-08-18T10:47:03.970Z,100674.40
2018-08-18T10:49:43.365Z,100680.77
2018-08-18T10:52:22.238Z,100680.28
2018-08-18T10:54:49.904Z,100684.10
2018-08-18T10:57:28.695Z,100675.91
2018-08-18T10:59:56.396Z,100678.91
2018-08-18T11:02:29.812Z,100670.34
2018-08-18T11:04:57.505Z,100678.78
2018-08-18T11:07:25.158Z,100677.45
2018-08-18T11:09:52.812Z,100681.22
2018-08-18T11:12:20.491Z,100645.22
2018-08-18T11:14:53.516Z,100679.91
2018-08-18T11:17:21.168Z,100670.52
2018-08-18T11:19:48.847Z,100661.13
2018-08-18T11:22:54.092Z,100663.13
2018-08-18T11:25:25.873Z,100665.48
2018-08-18T11:27:54.453Z,100674.55
2018-08-18T11:30:22.427Z,100667.17
2018-08-18T11:32:51.417Z,100677.92
2018-08-18T11:35:19.092Z,100666.70
2018-08-18T11:37:53.457Z,100665.52
2018-08-18T11:40:21.901Z,100669.20
2018-08-18T11:42:49.987Z,100665.53
2018-08-18T11:45:18.713Z,100657.81
2018-08-18T11:48:00.053Z,100652.09
2018-08-18T11:50:28.244Z,100648.59
2018-08-18T11:52:56.081Z,100644.76
2018-08-18T11:55:23.985Z,100637.37
2018-08-18T11:57:53.049Z,100644.09
2018-08-18T12:00:20.887Z,100635.51
2018-08-18T12:02:49.797Z,100639.39
2018-08-18T12:05:17.474Z,100642.23
2018-08-18T12:07:45.137Z,100637.71
2018-08-18T12:10:12.809Z,100618.90
2018-08-18T12:12:40.487Z,100615.73
2018-08-18T12:15:08.179Z,100613.88
2018-08-18T12:17:40.929Z,100610.22
2018-08-18T12:20:08.606Z,100622.30
2018-08-18T12:22:36.297Z,100614.05
2018-08-18T12:25:04.113Z,100615.05
2018-08-18T12:27:31.767Z,100601.95
2018-08-18T12:29:59.496Z,100601.09
2018-08-18T12:32:28.187Z,100596.40
2018-08-18T12:34:57.316Z,100596.72
2018-08-18T12:37:26.574Z,100599.92
2018-08-18T12:39:55.197Z,100583.63
2018-08-18T12:42:26.209Z,100590.69
2018-08-18T12:44:54.337Z,100585.83
2018-08-18T12:47:22.017Z,100572.53
2018-08-18T12:49:50.178Z,100578.58
2018-08-18T12:52:17.793Z,100580.24
2018-08-18T12:54:45.478Z,100573.52
2018-08-18T12:57:13.932Z,100580.91
2018-08-18T12:59:41.670Z,100578.39
2018-08-18T13:02:09.448Z,100577.20
2018-08-18T13:04:37.404Z,100574.36
2018-08-18T13:07:05.157Z,100570.48
2018-08-18T13:09:32.808Z,100576.20
2018-08-18T13:12:01.476Z,100579.88
2018-08-18T13:14:30.443Z,100582.41
2018-08-18T13:16:58.072Z,100586.28
2018-08-18T13:19:27.678Z,100579.55
2018-08-18T13:21:55.360Z,100578.88
2018-08-18T13:24:23.039Z,100574.51
2018-08-18T13:26:50.797Z,100573.51
2018-08-18T13:29:18.466Z,100572.15
2018-08-18T13:31:46.162Z,100576.53
2018-08-18T13:34:16.827Z,100578.39
2018-08-18T13:36:45.499Z,100587.16
2018-08-18T13:39:14.490Z,100578.41
2018-08-18T13:41:43.027Z,100577.56
2018-08-18T13:44:10.705Z,100576.28
2018-08-18T13:46:44.599Z,100583.98
2018-08-18T13:49:12.291Z,100581.30
2018-08-18T13:51:40.009Z,100577.09
2018-08-18T13:54:07.783Z,100584.48
2018-08-18T13:56:35.513Z,100574.77
2018-08-18T13:59:03.309Z,100580.81
2018-08-18T14:01:35.642Z,100581.27
2018-08-18T14:04:03.774Z,100579.78
2018-08-18T14:06:37.697Z,100577.92
2018-08-18T14:09:06.203Z,100568.03
2018-08-18T14:11:33.877Z,100564.83
2018-08-18T14:14:01.640Z,100571.55
2018-08-18T14:16:30.329Z,100560.77
2018-08-18T14:18:58.146Z,100550.38
2018-08-18T14:21:25.817Z,100556.44
2018-08-18T14:23:53.467Z,100553.44
2018-08-18T14:26:21.140Z,100546.88
2018-08-18T14:28:48.804Z,100541.00
2018-08-18T14:31:16.561Z,100543.99
2018-08-18T14:33:44.218Z,100539.47
2018-08-18T14:36:13.946Z,100530.91
2018-08-18T14:38:43.230Z,100523.85
2018-08-18T14:41:11.282Z,100521.67
2018-08-18T14:43:40.117Z,100517.31
2018-08-18T14:46:10.338Z,100515.97
2018-08-18T14:48:38.230Z,100510.27
2018-08-18T14:51:06.191Z,100518.17
2018-08-18T14:53:33.952Z,100508.75
2018-08-18T14:56:01.617Z,100507.42
2018-08-18T14:58:33.261Z,100495.36
2018-08-18T15:01:06.554Z,100490.66
2018-08-18T15:03:34.630Z,100487.62
2018-08-18T15:06:02.309Z,100485.27
2018-08-18T15:08:30.012Z,100477.70
2018-08-18T15:10:57.672Z,100473.19
2018-08-18T15:13:25.321Z,100474.52
2018-08-18T15:15:53.050Z,100464.94
2018-08-18T15:18:20.832Z,100465.98
2018-08-18T15:20:48.527Z,100455.41
2018-08-18T15:23:17.117Z,100455.39
2018-08-18T15:25:45.701Z,100454.72
2018-08-18T15:28:14.537Z,100448.03
2018-08-18T15:30:44.515Z,100443.00
2018-08-18T15:33:16.414Z,100436.95
2018-08-18T15:35:44.173Z,100426.39
2018-08-18T15:38:12.121Z,100424.52
2018-08-18T15:40:40.149Z,100430.93
2018-08-18T15:43:07.953Z,100421.70
2018-08-18T15:45:59.397Z,100424.19
2018-08-18T15:48:27.227Z,100422.20
2018-08-18T15:50:54.977Z,100419.02
2018-08-18T15:53:56.578Z,100418.86
2018-08-18T15:56:25.219Z,100407.73
2018-08-18T15:58:53.920Z,100398.02
2018-08-18T16:01:23.781Z,100395.20
2018-08-18T16:03:52.035Z,100379.61
2018-08-18T16:06:19.755Z,100383.78
2018-08-18T16:08:47.491Z,100376.26
2018-08-18T16:11:15.753Z,100369.88
2018-08-18T16:13:43.561Z,100364.64
2018-08-18T16:16:11.281Z,100361.30
2018-08-18T16:18:38.966Z,100362.98
2018-08-18T16:21:13.163Z,100350.72
2018-08-18T16:23:41.693Z,100322.58
2018-08-18T16:26:10.317Z,100345.53
2018-08-18T16:28:38.725Z,100338.48
2018-08-18T16:31:06.737Z,100338.31
2018-08-18T16:33:34.701Z,100345.03
2018-08-18T16:36:02.463Z,100344.53
2018-08-18T16:38:30.475Z,100338.69
2018-08-18T16:40:58.177Z,100336.15
2018-08-18T16:43:25.885Z,100333.64
2018-08-18T16:45:53.557Z,100334.80
2018-08-18T16:48:21.297Z,100327.93
2018-08-18T16:50:49.025Z,100321.89
2018-08-18T16:53:16.715Z,100318.73
2018-08-18T16:55:45.471Z,100315.71
2018-08-18T16:58:13.290Z,100319.55
2018-08-18T17:00:58.379Z,100310.84
2018-08-18T17:03:33.513Z,100311.84
2018-08-18T17:06:02.510Z,100305.03
2018-08-18T17:08:30.594Z,100296.02
2018-08-18T17:10:58.619Z,100288.30
2018-08-18T17:13:31.045Z,100281.27
2018-08-18T17:15:58.788Z,100271.79
2018-08-18T17:18:26.517Z,100267.22
2018-08-18T17:20:59.121Z,100257.49
2018-08-18T17:23:28.365Z,100262.52
2018-08-18T17:25:56.029Z,100263.52
2018-08-18T17:28:23.715Z,100265.86
2018-08-18T17:30:52.167Z,100253.08
2018-08-18T17:33:21.829Z,100250.38
2018-08-18T17:35:49.838Z,100241.67
2018-08-18T17:38:17.565Z,100243.56
2018-08-18T17:40:45.520Z,100250.24
2018-08-18T17:43:13.224Z,100240.06
2018-08-18T17:45:50.333Z,100233.64
2018-08-18T17:48:18.080Z,100231.42
2018-08-18T17:50:45.805Z,100231.02
2018-08-18T17:53:13.512Z,100233.27
2018-08-18T17:55:41.346Z,100243.55
2018-08-18T17:58:09.030Z,100243.80
2018-08-18T18:00:36.889Z,100247.48
2018-08-18T18:03:06.769Z,100247.47
2018-08-18T18:05:34.622Z,100247.14
2018-08-18T18:08:03.605Z,100259.50
2018-08-18T18:10:32.709Z,100245.35
2018-08-18T18:13:00.497Z,100249.50
2018-08-18T18:15:35.575Z,100227.91
2018-08-18T18:18:03.498Z,100231.25
2018-08-18T18:20:32.358Z,100229.67
2018-08-18T18:23:00.249Z,100218.38
2018-08-18T18:25:28.138Z,100219.71
2018-08-18T18:27:55.856Z,100210.36
2018-08-18T18:30:27.208Z,100216.72
2018-08-18T18:32:55.222Z,100206.74
2018-08-18T18:35:23.713Z,100204.83
2018-08-18T18:37:51.828Z,100197.93
2018-08-18T18:40:19.547Z,100194.61
2018-08-18T18:42:47.359Z,100186.42
2018-08-18T18:45:15.140Z,100190.61
2018-08-18T18:47:45.014Z,100187.89
2018-08-18T18:50:16.511Z,100176.38
2018-08-18T18:52:44.401Z,100176.05
2018-08-18T18:55:12.126Z,100113.86
2018-08-18T18:57:52.545Z,100166.21
2018-08-18T19:00:20.250Z,100163.63
2018-08-18T19:02:47.987Z,100143.02
2018-08-18T19:05:22.362Z,100147.50
2018-08-18T19:08:13.921Z,100146.97
2018-08-18T19:10:41.908Z,100141.87
2018-08-18T19:13:10.058Z,100120.83
2018-08-18T19:15:37.769Z,100113.67
2018-08-18T19:18:06.143Z,100108.80
2018-08-18T19:20:33.867Z,100105.37
2018-08-18T19:23:08.959Z,100112.06
2018-08-18T19:25:37.860Z,100110.75
2018-08-18T19:28:05.637Z,100088.92
2018-08-18T19:30:33.967Z,100100.91
2018-08-18T19:33:01.889Z,100106.91
2018-08-18T19:35:35.105Z,100108.58
2018-08-18T19:38:03.892Z,100100.02
2018-08-18T19:40:31.842Z,100102.14
2018-08-18T19:42:59.583Z,100099.23
2018-08-18T19:45:27.258Z,100098.48
2018-08-18T19:47:54.925Z,100089.14
2018-08-18T19:50:22.657Z,100096.30
2018-08-18T19:52:55.954Z,100092.39
2018-08-18T19:55:23.618Z,100102.39
2018-08-18T19:57:51.274Z,100095.81
2018-08-18T20:00:19.982Z,100088.56
2018-08-18T20:03:05.398Z,100073.83
2018-08-18T20:05:33.095Z,100077.98
2018-08-18T20:08:00.785Z,100084.81
2018-08-18T20:10:28.517Z,100096.20
2018-08-18T20:12:56.183Z,100105.12
2018-08-18T20:15:23.855Z,100098.61
2018-08-18T20:17:51.506Z,100089.94
2018-08-18T20:20:21.573Z,100086.25
2018-08-18T20:22:49.339Z,100080.57
2018-08-18T20:25:17.022Z,100077.45
2018-08-18T20:27:44.668Z,100075.83
2018-08-18T20:30:13.166Z,100065.50
2018-08-18T20:32:40.823Z,100071.52
2018-08-18T20:35:08.585Z,100076.76
2018-08-18T20:37:36.364Z,100084.99
2018-08-18T20:40:05.441Z,100082.92
2018-08-18T20:42:38.948Z,100077.58
2018-08-18T20:45:06.805Z,100099.42
2018-08-18T20:47:34.505Z,100077.34
2018-08-18T20:50:02.174Z,100076.05
2018-08-18T20:52:29.835Z,100069.25
2018-08-18T20:54:58.246Z,100079.67
2018-08-18T20:57:25.933Z,100078.55
2018-08-18T20:59:53.611Z,100080.02
2018-08-18T21:02:21.292Z,100094.68
2018-08-18T21:04:57.317Z,100092.95
2018-08-18T21:07:25.249Z,100085.91
2018-08-18T21:09:53.789Z,100096.40
2018-08-18T21:12:21.510Z,100082.84
2018-08-18T21:14:49.169Z,100078.97
2018-08-18T21:17:16.838Z,100093.97
2018-08-18T21:19:44.508Z,100096.53
2018-08-18T21:22:13.389Z,100092.61
2018-08-18T21:24:41.094Z,100103.82
2018-08-18T21:27:08.749Z,100118.77
2018-08-18T21:29:36.413Z,100117.67
2018-08-18T21:32:04.238Z,100110.69
2018-08-18T21:34:38.443Z,100119.73
2018-08-18T21:37:06.457Z,100121.09
2018-08-18T21:39:34.164Z,100119.83
2018-08-18T21:42:01.896Z,100119.06
2018-08-18T21:44:29.579Z,100118.17
2018-08-18T21:46:57.265Z,100116.62
2018-08-18T21:49:24.930Z,100116.16
2018-08-18T21:51:52.658Z,100117.92
2018-08-18T21:54:20.302Z,100113.73
2018-08-18T21:56:47.979Z,100097.11
2018-08-18T21:59:15.624Z,100108.24
2018-08-18T22:01:43.450Z,100091.78
2018-08-18T22:04:11.125Z,100098.28
2018-08-18T22:06:38.882Z,100104.67
2018-08-18T22:09:20.193Z,100070.06
2018-08-18T22:11:47.935Z,100103.56
2018-08-18T22:14:16.601Z,100116.53
2018-08-18T22:16:58.985Z,100116.19
2018-08-18T22:19:27.921Z,100111.98
2018-08-18T22:21:55.672Z,100118.52
2018-08-18T22:24:23.606Z,100125.75
2018-08-18T22:26:51.414Z,100127.12
2018-08-18T22:29:22.903Z,100128.92
2018-08-18T22:31:50.876Z,100134.91
2018-08-18T22:34:18.549Z,100132.45
2018-08-18T22:36:46.302Z,100124.63
2018-08-18T22:39:14.033Z,100127.84
2018-08-18T22:41:42.671Z,100131.07
2018-08-18T22:44:10.358Z,100134.64
2018-08-18T22:46:38.134Z,100133.88
2018-08-18T22:49:05.966Z,100143.58
2018-08-18T22:51:33.787Z,100145.81
2018-08-18T22:54:01.502Z,100150.23
2018-08-18T22:56:36.357Z,100149.69
2018-08-18T22:59:06.787Z,100159.31
2018-08-18T23:01:36.567Z,100161.72
2018-08-18T23:04:13.455Z,100165.50
2018-08-18T23:06:41.150Z,100159.69
2018-08-18T23:09:08.814Z,100160.13
2018-08-18T23:11:36.482Z,100158.14
2018-08-18T23:14:04.160Z,100159.53
2018-08-18T23:16:31.880Z,100158.98
2018-08-18T23:18:59.523Z,100119.08
2018-08-18T23:21:28.019Z,100162.14
2018-08-18T23:23:55.824Z,100158.03
2018-08-18T23:26:23.655Z,100172.81
2018-08-18T23:28:51.309Z,100166.77
2018-08-18T23:31:18.966Z,100167.70
2018-08-18T23:33:46.633Z,100172.49
2018-08-18T23:36:14.291Z,100182.41
2018-08-18T23:38:48.341Z,100181.25
2018-08-18T23:41:16.163Z,100195.96
2018-08-18T23:43:43.870Z,100189.80
2018-08-18T23:46:11.571Z,100196.52
2018-08-18T23:48:39.251Z,100204.94
2018-08-18T23:51:06.969Z,100198.23
2018-08-18T23:53:34.639Z,100206.44
2018-08-18T23:56:02.307Z,100205.39
2018-08-18T23:58:30.317Z,100211.29
